Aviation Digital Data Service (ADDS)

Output produced by METARs form (2318 UTC 29 April 2017)
found at http://aviationweather.gov/adds/metars/
 
KLGA 292042Z 2921/3018 28020G30KT P6SM SCT050 BKN200 
     FM292300 31014G20KT P6SM SCT050 BKN200 
     FM300000 32010KT P6SM BKN200 
     FM300300 34010KT P6SM FEW050 SCT200 
     FM300900 04008KT P6SM SCT050 
     FM301400 08011KT P6SM BKN050